| time (UTC) | temp F | wind direction | speed MPH | gust MPH | rain 1hr in | rain 24hr in | rain mn in | humidity % | barometer mb |
| 20260506090721 | 53 | 37 | 0.0 | 0.0 | 0.00 | 0.00 | 0.00 | 99 | 1019.5 |
| 20260506085217 | 53 | 6 | 0.0 | 1.0 | 0.00 | 0.00 | 0.00 | 98 | 1019.2 |
| 20260506083713 | 53 | 180 | 2.0 | 2.0 | 0.00 | 0.00 | 0.00 | 98 | 1019.0 |
| 20260506082208 | 52 | 117 | 0.0 | 0.0 | 0.00 | 0.00 | 0.00 | 98 | 1019.1 |
| 20260506080707 | 52 | 29 | 0.0 | 0.0 | 0.00 | 0.00 | 0.00 | 96 | 1019.1 |
| 20260506072159 | 53 | 1 | 0.0 | 0.0 | 0.00 | 0.00 | 0.00 | 98 | 1018.6 |
| 20260506070657 | 53 | 27 | 0.0 | 0.0 | 0.00 | 0.00 | 0.00 | 97 | 1018.4 |
| 20260506062148 | 53 | 37 | 0.0 | 0.0 | 0.00 | 0.00 | 0.00 | 97 | 1018.1 |
| 20260506060646 | 54 | 37 | 0.0 | 0.0 | 0.00 | 0.00 | 0.00 | 96 | 1018.1 |
| 20260506050637 | 54 | 30 | 0.0 | 0.0 | 0.00 | 0.00 | 0.00 | 97 | 1017.8 |
| 20260506045132 | 55 | 30 | 0.0 | 0.0 | 0.00 | 0.00 | 0.00 | 96 | 1017.6 |
| 20260506043630 | 56 | 31 | 0.0 | 0.0 | 0.00 | 0.00 | 0.00 | 95 | 1017.5 |
| 20260506042131 | 56 | 29 | 0.0 | 0.0 | 0.00 | 0.00 | 0.00 | 93 | 1017.7 |
| 20260506040629 | 57 | 28 | 0.0 | 0.0 | 0.00 | 0.00 | 0.00 | 92 | 1017.4 |
| 20260506035125 | 58 | 28 | 0.0 | 0.0 | 0.00 | 0.00 | 0.00 | 90 | 1017.3 |
| 20260506033622 | 59 | 28 | 0.0 | 0.0 | 0.00 | 0.00 | 0.00 | 87 | 1017.2 |
| 20260506032119 | 61 | 26 | 0.0 | 0.0 | 0.00 | 0.00 | 0.00 | 84 | 1016.9 |
| 20260506030618 | 62 | 26 | 0.0 | 0.0 | 0.00 | 0.00 | 0.00 | 80 | 1016.8 |
| 20260506025113 | 64 | 21 | 1.0 | 1.0 | 0.00 | 0.00 | 0.00 | 76 | 1016.8 |
| 20260506023608 | 65 | 20 | 1.0 | 2.0 | 0.00 | 0.00 | 0.00 | 74 | 1017.0 |
| 20260506022107 | 66 | 17 | 1.0 | 2.0 | 0.00 | 0.00 | 0.00 | 72 | 1016.6 |
| 20260506020604 | 66 | 27 | 3.0 | 3.0 | 0.00 | 0.00 | 0.00 | 71 | 1016.5 |
| 20260506015101 | 67 | 27 | 3.0 | 3.0 | 0.00 | 0.00 | 0.00 | 69 | 1016.7 |
| 20260506013559 | 68 | 91 | 2.0 | 2.0 | 0.00 | 0.00 | 0.00 | 67 | 1016.6 |
| 20260506012054 | 69 | 17 | 2.0 | 2.0 | 0.00 | 0.00 | 0.00 | 67 | 1016.7 |
| 20260506010553 | 69 | 35 | 1.0 | 1.0 | 0.00 | 0.00 | 0.00 | 66 | 1016.8 |
| 20260506005048 | 71 | 41 | 1.0 | 1.0 | 0.00 | 0.00 | 0.00 | 62 | 1016.9 |
| 20260506003545 | 70 | 31 | 2.0 | 2.0 | 0.00 | 0.00 | 0.00 | 64 | 1016.8 |
| 20260506002045 | 71 | 18 | 1.0 | 1.0 | 0.00 | 0.00 | 0.00 | 60 | 1016.9 |
| 20260506000541 | 71 | 37 | 3.0 | 3.0 | 0.00 | 0.00 | 0.00 | 60 | 1017.1 |
| 20260505235039 | 72 | 30 | 2.0 | 2.0 | 0.00 | 0.00 | 0.00 | 61 | 1017.2 |
| 20260505233536 | 72 | 38 | 4.0 | 5.0 | 0.00 | 0.00 | 0.00 | 57 | 1017.2 |
| 20260505232034 | 72 | 13 | 3.0 | 3.0 | 0.00 | 0.00 | 0.00 | 54 | 1017.2 |
| 20260505230533 | 73 | 48 | 1.0 | 2.0 | 0.00 | 0.00 | 0.00 | 54 | 1017.5 |
| 20260505225033 | 71 | 264 | 1.0 | 1.0 | 0.00 | 0.00 | 0.00 | 56 | 1017.6 |
| 20260505223530 | 71 | 18 | 2.0 | 2.0 | 0.00 | 0.00 | 0.00 | 57 | 1017.7 |
| 20260505222025 | 72 | 29 | 3.0 | 3.0 | 0.00 | 0.00 | 0.00 | 57 | 1017.8 |
| 20260505220522 | 72 | 14 | 3.0 | 5.0 | 0.00 | 0.00 | 0.00 | 58 | 1017.7 |
| 20260505215020 | 72 | 17 | 1.0 | 1.0 | 0.00 | 0.00 | 0.00 | 58 | 1018.0 |
| 20260505213519 | 71 | 35 | 3.0 | 3.0 | 0.00 | 0.00 | 0.00 | 60 | 1018.3 |
| 20260505212014 | 72 | 88 | 1.0 | 2.0 | 0.00 | 0.00 | 0.00 | 59 | 1018.1 |
| 20260505210510 | 72 | 35 | 4.0 | 5.0 | 0.00 | 0.00 | 0.00 | 61 | 1018.3 |
| 20260505205008 | 71 | 8 | 3.0 | 5.0 | 0.00 | 0.00 | 0.00 | 64 | 1018.3 |
| 20260505203505 | 71 | 34 | 3.0 | 3.0 | 0.00 | 0.00 | 0.00 | 61 | 1018.5 |
| 20260505202000 | 71 | 9 | 1.0 | 1.0 | 0.00 | 0.00 | 0.00 | 61 | 1018.5 |
| 20260505200458 | 68 | 46 | 4.0 | 6.0 | 0.00 | 0.00 | 0.00 | 67 | 1018.6 |
| 20260505194954 | 68 | 29 | 2.0 | 3.0 | 0.00 | 0.00 | 0.00 | 70 | 1018.3 |
| 20260505193449 | 69 | 35 | 2.0 | 3.0 | 0.00 | 0.00 | 0.00 | 68 | 1018.5 |
| 20260505191948 | 67 | 32 | 3.0 | 3.0 | 0.00 | 0.00 | 0.00 | 70 | 1018.6 |
| 20260505190444 | 67 | 27 | 2.0 | 3.0 | 0.00 | 0.00 | 0.00 | 71 | 1018.6 |
| 20260505184939 | 67 | 31 | 4.0 | 5.0 | 0.00 | 0.00 | 0.00 | 70 | 1018.4 |
| 20260505183436 | 68 | 32 | 3.0 | 5.0 | 0.00 | 0.00 | 0.00 | 70 | 1018.4 |
| 20260505181932 | 67 | 40 | 2.0 | 2.0 | 0.00 | 0.00 | 0.00 | 68 | 1018.5 |
| 20260505180428 | 66 | 45 | 1.0 | 2.0 | 0.00 | 0.00 | 0.00 | 72 | 1018.3 |
| 20260505174923 | 67 | 46 | 3.0 | 3.0 | 0.00 | 0.00 | 0.00 | 71 | 1018.3 |
| 20260505173420 | 66 | 8 | 2.0 | 2.0 | 0.00 | 0.00 | 0.00 | 73 | 1018.2 |
| 20260505171914 | 66 | 58 | 2.0 | 2.0 | 0.00 | 0.00 | 0.00 | 71 | 1018.2 |
| 20260505170411 | 66 | 58 | 2.0 | 3.0 | 0.00 | 0.00 | 0.00 | 70 | 1018.2 |
| 20260505164909 | 65 | 25 | 3.0 | 3.0 | 0.00 | 0.00 | 0.00 | 73 | 1018.2 |
| 20260505163409 | 65 | 24 | 1.0 | 2.0 | 0.00 | 0.00 | 0.00 | 74 | 1018.1 |
| 20260505161906 | 64 | 25 | 1.0 | 1.0 | 0.00 | 0.00 | 0.00 | 76 | 1018.2 |
| 20260505160404 | 64 | 354 | 2.0 | 2.0 | 0.00 | 0.00 | 0.00 | 74 | 1018.2 |
| 20260505153354 | 62 | 4 | 3.0 | 3.0 | 0.00 | 0.00 | 0.00 | 77 | 1018.0 |
| 20260505151849 | 61 | 31 | 1.0 | 1.0 | 0.00 | 0.00 | 0.00 | 81 | 1017.7 |
| 20260505150346 | 58 | 34 | 0.0 | 0.0 | 0.00 | 0.00 | 0.00 | 84 | 1017.9 |
| 20260505140334 | 52 | 52 | 0.0 | 1.0 | 0.00 | 0.00 | 0.00 | 89 | 1017.3 |
| 20260505124817 | 50 | 184 | 1.0 | 1.0 | 0.00 | 0.00 | 0.00 | 92 | 1016.2 |
| 20260505123312 | 51 | 296 | 1.0 | 1.0 | 0.00 | 0.00 | 0.00 | 92 | 1016.4 |
| 20260505121808 | 51 | 193 | 2.0 | 2.0 | 0.00 | 0.00 | 0.00 | 92 | 1016.0 |
| 20260505120303 | 51 | 356 | 1.0 | 1.0 | 0.00 | 0.00 | 0.00 | 92 | 1015.9 |
| 20260505114802 | 52 | 4 | 0.0 | 1.0 | 0.00 | 0.00 | 0.00 | 90 | 1015.9 |
| 20260505113258 | 53 | 8 | 0.0 | 0.0 | 0.00 | 0.00 | 0.00 | 89 | 1015.7 |
| 20260505111758 | 53 | 358 | 0.0 | 1.0 | 0.00 | 0.00 | 0.00 | 89 | 1015.6 |
| 20260505110254 | 53 | 258 | 1.0 | 1.0 | 0.00 | 0.00 | 0.00 | 88 | 1015.6 |
| 20260505101751 | 54 | 206 | 1.0 | 1.0 | 0.00 | 0.00 | 0.00 | 85 | 1015.2 |
| 20260505100251 | 55 | 107 | 1.0 | 1.0 | 0.00 | 0.00 | 0.00 | 83 | 1015.0 |
| 20260505094752 | 55 | 196 | 1.0 | 1.0 | 0.00 | 0.00 | 0.00 | 80 | 1014.9 |
| 20260505093248 | 55 | 190 | 2.0 | 2.0 | 0.00 | 0.00 | 0.00 | 80 | 1014.6 |
| 20260505091746 | 56 | 116 | 1.0 | 1.0 | 0.00 | 0.00 | 0.00 | 79 | 1014.6 |